createdAt,value
2018-01-26T00:00:57.249Z,0
2018-01-26T00:02:02.451Z,0
2018-01-26T00:03:07.365Z,0
2018-01-26T00:04:12.804Z,0
2018-01-26T00:05:17.992Z,0
2018-01-26T00:06:23.453Z,0
2018-01-26T00:07:29.021Z,0
2018-01-26T00:08:34.503Z,0
2018-01-26T00:09:40.250Z,0
2018-01-26T00:10:45.716Z,0
2018-01-26T00:11:51.205Z,0
2018-01-26T00:12:56.847Z,0
2018-01-26T00:14:02.311Z,0
2018-01-26T00:15:07.492Z,0
2018-01-26T00:16:13.038Z,0
2018-01-26T00:17:17.948Z,0
2018-01-26T00:18:23.424Z,0
2018-01-26T00:19:29.136Z,0
2018-01-26T00:20:34.641Z,0
2018-01-26T00:21:40.087Z,0
2018-01-26T00:22:44.997Z,0
2018-01-26T00:23:50.183Z,0
2018-01-26T00:24:55.921Z,0
2018-01-26T00:26:01.122Z,0
2018-01-26T00:27:06.602Z,0
2018-01-26T00:28:12.022Z,0
2018-01-26T00:29:17.220Z,0
2018-01-26T00:30:22.691Z,0
2018-01-26T00:31:28.488Z,0
2018-01-26T00:32:33.955Z,0
2018-01-26T00:33:39.678Z,0
2018-01-26T00:34:45.169Z,0
2018-01-26T00:35:49.781Z,0
2018-01-26T00:36:55.504Z,0
2018-01-26T00:38:00.684Z,0
2018-01-26T00:39:06.165Z,0
2018-01-26T00:40:11.016Z,0
2018-01-26T00:41:16.204Z,0
2018-01-26T00:42:21.673Z,0
2018-01-26T00:43:27.739Z,0
2018-01-26T00:44:33.221Z,0
2018-01-26T00:45:38.651Z,0
2018-01-26T00:46:44.117Z,0
2018-01-26T00:47:49.580Z,0
2018-01-26T00:48:55.552Z,0
2018-01-26T00:50:00.737Z,0
2018-01-26T00:51:05.937Z,0
2018-01-26T00:52:10.854Z,0
2018-01-26T00:53:15.502Z,0
2018-01-26T00:54:20.699Z,0
2018-01-26T00:55:26.219Z,0
2018-01-26T00:56:31.705Z,0
2018-01-26T00:57:37.431Z,0
2018-01-26T00:58:42.884Z,0
2018-01-26T00:59:48.355Z,0
2018-01-26T01:00:54.119Z,0
2018-01-26T01:01:59.328Z,0
2018-01-26T01:03:04.785Z,0
2018-01-26T01:04:10.193Z,0
2018-01-26T01:05:15.389Z,0
2018-01-26T01:06:20.873Z,0
2018-01-26T01:07:26.604Z,0
2018-01-26T01:08:31.492Z,0
2018-01-26T01:09:37.208Z,0
2018-01-26T01:10:42.680Z,0
2018-01-26T01:11:48.150Z,0
2018-01-26T01:12:53.608Z,0
2018-01-26T01:13:58.515Z,0
2018-01-26T01:15:03.699Z,0
2018-01-26T01:16:09.520Z,0
2018-01-26T01:17:14.401Z,0
2018-01-26T01:18:19.602Z,0
2018-01-26T01:19:25.373Z,0
2018-01-26T01:20:30.849Z,0
2018-01-26T01:21:35.734Z,0
2018-01-26T01:22:40.905Z,0
2018-01-26T01:23:45.545Z,0
2018-01-26T01:24:50.179Z,0
2018-01-26T01:25:55.657Z,0
2018-01-26T01:27:00.844Z,0
2018-01-26T01:28:06.279Z,0
2018-01-26T01:29:10.909Z,0
2018-01-26T01:30:16.097Z,0
2018-01-26T01:31:21.862Z,0
2018-01-26T01:32:27.361Z,0
2018-01-26T01:33:32.994Z,0
2018-01-26T01:34:38.204Z,0
2018-01-26T01:35:43.392Z,0
2018-01-26T01:36:48.938Z,0
2018-01-26T01:37:54.418Z,0
2018-01-26T01:38:59.876Z,0
2018-01-26T01:40:05.026Z,0
2018-01-26T01:41:09.661Z,0
2018-01-26T01:42:14.848Z,0
2018-01-26T01:43:20.575Z,0
2018-01-26T01:44:25.754Z,0
2018-01-26T01:45:31.798Z,0
2018-01-26T01:46:36.708Z,0
2018-01-26T01:47:42.195Z,0
2018-01-26T01:48:47.353Z,0
2018-01-26T01:49:52.820Z,0
2018-01-26T01:50:58.002Z,0
2018-01-26T01:52:03.933Z,0
2018-01-26T01:53:09.147Z,0
2018-01-26T01:54:14.620Z,0
2018-01-26T01:55:20.069Z,0
2018-01-26T01:56:25.261Z,0
2018-01-26T01:57:31.090Z,0
2018-01-26T01:58:36.565Z,0
2018-01-26T01:59:41.759Z,0
2018-01-26T02:00:47.492Z,0
2018-01-26T02:01:52.690Z,0
2018-01-26T02:02:58.172Z,0
2018-01-26T02:04:03.436Z,0
2018-01-26T02:05:08.608Z,0
2018-01-26T02:06:14.083Z,0
2018-01-26T02:07:19.536Z,0
2018-01-26T02:08:25.009Z,0
2018-01-26T02:09:30.606Z,0
2018-01-26T02:10:35.215Z,0
2018-01-26T02:11:40.674Z,0
2018-01-26T02:12:46.134Z,0
2018-01-26T02:13:51.614Z,0
2018-01-26T02:14:56.792Z,0
2018-01-26T02:16:02.006Z,0
2018-01-26T02:17:07.193Z,0
2018-01-26T02:18:11.809Z,0
2018-01-26T02:19:17.241Z,0
2018-01-26T02:20:22.746Z,0
2018-01-26T02:21:28.475Z,0
2018-01-26T02:22:33.946Z,0
2018-01-26T02:23:39.404Z,0
2018-01-26T02:24:45.120Z,0
2018-01-26T02:25:50.371Z,0
2018-01-26T02:26:55.846Z,0
2018-01-26T02:28:01.364Z,0
2018-01-26T02:29:06.571Z,0
2018-01-26T02:30:11.509Z,0
2018-01-26T02:31:17.220Z,0
2018-01-26T02:32:22.394Z,0
2018-01-26T02:33:27.851Z,0
2018-01-26T02:34:33.320Z,0
2018-01-26T02:35:38.772Z,0
2018-01-26T02:36:44.210Z,0
2018-01-26T02:37:49.673Z,0
2018-01-26T02:38:55.143Z,0
2018-01-26T02:40:01.550Z,0
2018-01-26T02:41:06.192Z,0
2018-01-26T02:42:11.678Z,0
2018-01-26T02:43:17.383Z,0
2018-01-26T02:44:22.281Z,0
2018-01-26T02:45:27.760Z,0
2018-01-26T02:46:33.238Z,0
2018-01-26T02:47:38.956Z,0
2018-01-26T02:48:44.722Z,0
2018-01-26T02:49:49.922Z,0
2018-01-26T02:50:55.408Z,0
2018-01-26T02:52:01.022Z,0
2018-01-26T02:53:06.215Z,0
2018-01-26T02:54:11.122Z,0
2018-01-26T02:55:16.601Z,0
2018-01-26T02:56:21.848Z,0
2018-01-26T02:57:27.663Z,0
2018-01-26T02:58:33.129Z,0
2018-01-26T02:59:38.599Z,0
2018-01-26T03:00:43.432Z,0
2018-01-26T03:01:48.630Z,0
2018-01-26T03:02:54.092Z,0
2018-01-26T03:03:59.824Z,0
2018-01-26T03:05:05.293Z,0
2018-01-26T03:06:10.184Z,0
2018-01-26T03:07:15.645Z,0
2018-01-26T03:08:21.129Z,0
2018-01-26T03:09:26.326Z,0
2018-01-26T03:10:31.505Z,0
2018-01-26T03:11:36.391Z,0
2018-01-26T03:12:42.120Z,0
2018-01-26T03:13:47.617Z,0
2018-01-26T03:14:53.106Z,0
2018-01-26T03:15:58.870Z,0
2018-01-26T03:17:04.045Z,0
2018-01-26T03:18:08.679Z,0
2018-01-26T03:19:13.833Z,0
2018-01-26T03:20:19.017Z,0
2018-01-26T03:21:24.226Z,0
2018-01-26T03:22:30.010Z,0
2018-01-26T03:23:35.481Z,0
2018-01-26T03:24:41.300Z,0
2018-01-26T03:25:46.509Z,0
2018-01-26T03:26:51.708Z,0
2018-01-26T03:27:57.537Z,0
2018-01-26T03:29:02.986Z,0
2018-01-26T03:30:08.168Z,0
2018-01-26T03:31:13.621Z,0
2018-01-26T03:32:19.087Z,0
2018-01-26T03:34:44.624Z,0
2018-01-26T03:35:49.798Z,0
2018-01-26T03:36:55.292Z,0
2018-01-26T03:38:00.758Z,0
2018-01-26T03:39:06.226Z,0
2018-01-26T03:40:10.850Z,0
2018-01-26T03:41:16.363Z,0
2018-01-26T03:42:21.542Z,0
2018-01-26T03:43:27.295Z,0
2018-01-26T03:44:32.474Z,0
2018-01-26T03:45:38.499Z,0
2018-01-26T03:46:43.703Z,0
2018-01-26T03:47:48.584Z,0
2018-01-26T03:48:54.122Z,0
2018-01-26T03:49:59.595Z,0
2018-01-26T03:51:04.772Z,0
2018-01-26T03:52:10.009Z,0
2018-01-26T03:53:14.926Z,0
2018-01-26T03:54:20.405Z,0
2018-01-26T03:55:26.363Z,0
2018-01-26T03:56:31.856Z,0
2018-01-26T03:57:37.569Z,0
2018-01-26T03:58:42.761Z,0
2018-01-26T03:59:48.226Z,0
2018-01-26T04:00:53.948Z,0
2018-01-26T04:01:59.460Z,0
2018-01-26T04:03:04.637Z,0
2018-01-26T04:04:10.147Z,0
2018-01-26T04:05:15.336Z,0
2018-01-26T04:06:20.793Z,0
2018-01-26T04:07:40.860Z,0
2018-01-26T04:08:46.049Z,0
2018-01-26T04:09:51.841Z,0
2018-01-26T04:10:57.313Z,0
2018-01-26T04:12:02.505Z,0
2018-01-26T04:13:07.658Z,0
2018-01-26T04:14:13.143Z,0
2018-01-26T04:15:18.596Z,0
2018-01-26T04:16:24.059Z,0
2018-01-26T04:17:29.548Z,0
2018-01-26T04:18:34.502Z,0
2018-01-26T04:19:39.987Z,0
2018-01-26T04:20:45.475Z,0
2018-01-26T04:21:51.244Z,0
2018-01-26T04:22:56.706Z,0
2018-01-26T04:24:02.170Z,0
2018-01-26T04:25:07.816Z,0
2018-01-26T04:26:12.735Z,0
2018-01-26T04:27:17.925Z,0
2018-01-26T04:28:23.448Z,0
2018-01-26T04:29:28.635Z,0
2018-01-26T04:30:34.583Z,0
2018-01-26T04:31:39.761Z,0
2018-01-26T04:32:45.242Z,0
2018-01-26T04:33:50.958Z,0
2018-01-26T04:34:56.172Z,0
2018-01-26T04:36:00.789Z,0
2018-01-26T04:37:06.243Z,0
2018-01-26T04:38:11.151Z,0
2018-01-26T04:39:16.636Z,0
2018-01-26T04:40:21.518Z,0
2018-01-26T04:41:26.994Z,0
2018-01-26T04:42:32.885Z,0
2018-01-26T04:43:38.058Z,0
2018-01-26T04:44:43.528Z,0
2018-01-26T04:45:49.252Z,0
2018-01-26T04:46:54.719Z,0
2018-01-26T04:47:59.916Z,0
2018-01-26T04:49:05.637Z,0
2018-01-26T04:50:10.811Z,0
2018-01-26T04:51:15.720Z,0
2018-01-26T04:52:21.607Z,0
2018-01-26T04:53:26.797Z,0
2018-01-26T04:54:32.452Z,0
2018-01-26T04:55:37.641Z,0
2018-01-26T04:56:42.830Z,0
2018-01-26T04:57:48.685Z,0
2018-01-26T04:58:54.140Z,0
2018-01-26T04:59:59.609Z,0
2018-01-26T05:01:05.175Z,0
2018-01-26T05:02:10.089Z,0
2018-01-26T05:03:15.257Z,0
2018-01-26T05:04:20.701Z,0
2018-01-26T05:05:25.620Z,0
2018-01-26T05:06:30.799Z,0
2018-01-26T05:07:35.979Z,0
2018-01-26T05:08:41.446Z,0
2018-01-26T05:09:46.893Z,0
2018-01-26T05:10:52.394Z,0
2018-01-26T05:11:57.873Z,0
2018-01-26T05:13:03.583Z,0
2018-01-26T05:14:08.814Z,0
2018-01-26T05:15:13.740Z,0
2018-01-26T05:16:18.935Z,0
2018-01-26T05:17:24.400Z,0
2018-01-26T05:18:30.554Z,0
2018-01-26T05:19:36.138Z,0
2018-01-26T05:20:41.319Z,0
2018-01-26T05:21:47.262Z,0
2018-01-26T05:22:52.731Z,0
2018-01-26T05:23:57.912Z,0
2018-01-26T05:25:03.222Z,0
2018-01-26T05:26:08.102Z,0
2018-01-26T05:27:13.284Z,0
2018-01-26T05:28:19.203Z,0
2018-01-26T05:29:24.678Z,0
2018-01-26T05:30:29.488Z,0
2018-01-26T05:31:34.974Z,0
2018-01-26T05:32:40.148Z,0
2018-01-26T05:33:45.642Z,0
2018-01-26T05:34:51.139Z,0
2018-01-26T05:35:56.323Z,0
2018-01-26T05:37:01.794Z,0
2018-01-26T05:38:06.424Z,0
2018-01-26T05:39:11.881Z,0
2018-01-26T05:40:17.595Z,0
2018-01-26T05:41:23.081Z,0
2018-01-26T05:42:28.994Z,0
2018-01-26T05:43:34.464Z,0
2018-01-26T05:44:39.925Z,0
2018-01-26T05:45:45.742Z,0
2018-01-26T05:46:51.213Z,0
2018-01-26T05:47:56.689Z,0
2018-01-26T05:49:02.149Z,0
2018-01-26T05:50:07.064Z,0
2018-01-26T05:51:11.971Z,0
2018-01-26T05:52:17.729Z,0
2018-01-26T05:53:23.202Z,0
2018-01-26T05:54:29.118Z,0
2018-01-26T05:55:34.293Z,0
2018-01-26T05:56:39.765Z,0
2018-01-26T05:57:45.672Z,0
2018-01-26T05:58:50.854Z,0
2018-01-26T05:59:56.323Z,0
2018-01-26T06:01:01.760Z,0
2018-01-26T06:02:06.948Z,0
2018-01-26T06:03:12.116Z,0
2018-01-26T06:04:17.939Z,0
2018-01-26T06:05:22.826Z,0
2018-01-26T06:06:28.972Z,0
2018-01-26T06:07:34.452Z,0
2018-01-26T06:08:39.927Z,0
2018-01-26T06:09:45.727Z,0
2018-01-26T06:10:51.196Z,0
2018-01-26T06:11:56.379Z,0
2018-01-26T06:13:01.811Z,0
2018-01-26T06:14:07.001Z,0
2018-01-26T06:15:11.890Z,0
2018-01-26T06:16:17.336Z,0
2018-01-26T06:17:22.824Z,0
2018-01-26T06:18:28.649Z,0
2018-01-26T06:19:34.130Z,0
2018-01-26T06:20:39.321Z,0
2018-01-26T06:21:45.238Z,0
2018-01-26T06:22:50.693Z,0
2018-01-26T06:23:56.159Z,0
2018-01-26T06:25:01.579Z,0
2018-01-26T06:26:07.046Z,0
2018-01-26T06:27:11.970Z,0
2018-01-26T06:28:17.686Z,0
2018-01-26T06:29:23.157Z,0
2018-01-26T06:30:28.979Z,0
2018-01-26T06:31:34.174Z,0
2018-01-26T06:32:39.364Z,0
2018-01-26T06:33:45.136Z,0
2018-01-26T06:34:50.604Z,0
2018-01-26T06:35:55.787Z,0
2018-01-26T06:37:01.491Z,0
2018-01-26T06:38:06.409Z,0
2018-01-26T06:39:11.023Z,0
2018-01-26T06:40:16.746Z,0
2018-01-26T06:41:22.209Z,0
2018-01-26T06:42:27.924Z,0
2018-01-26T06:43:33.385Z,0
2018-01-26T06:44:38.558Z,0
2018-01-26T06:45:43.719Z,0
2018-01-26T06:46:49.196Z,0
2018-01-26T06:47:54.664Z,0
2018-01-26T06:49:00.394Z,0
2018-01-26T06:50:05.579Z,0
2018-01-26T06:51:10.495Z,0
2018-01-26T06:52:16.081Z,0
2018-01-26T06:53:21.266Z,0
2018-01-26T06:54:26.979Z,0
2018-01-26T06:55:32.434Z,0
2018-01-26T06:56:37.897Z,0
2018-01-26T06:57:43.334Z,0
2018-01-26T06:58:49.005Z,0
2018-01-26T06:59:54.472Z,0
2018-01-26T07:01:00.194Z,0
2018-01-26T07:02:05.112Z,0
2018-01-26T07:03:10.039Z,0
2018-01-26T07:04:15.676Z,0
2018-01-26T07:05:21.153Z,0
2018-01-26T07:06:27.167Z,0
2018-01-26T07:07:32.965Z,0
2018-01-26T07:08:37.875Z,0
2018-01-26T07:09:43.584Z,0
2018-01-26T07:10:48.771Z,0
2018-01-26T07:11:54.246Z,0
2018-01-26T07:12:59.979Z,0
2018-01-26T07:14:05.537Z,0
2018-01-26T07:15:10.777Z,0
2018-01-26T07:16:16.484Z,0
2018-01-26T07:17:21.940Z,0
2018-01-26T07:18:42.563Z,0
2018-01-26T07:19:48.040Z,0
2018-01-26T07:20:52.938Z,0
2018-01-26T07:21:58.363Z,0
2018-01-26T07:23:03.860Z,0
2018-01-26T07:24:09.332Z,0
2018-01-26T07:25:14.816Z,0
2018-01-26T07:26:19.991Z,0
2018-01-26T07:27:40.367Z,0
2018-01-26T07:28:45.838Z,0
2018-01-26T07:29:51.292Z,0
2018-01-26T07:30:56.846Z,0
2018-01-26T07:32:02.031Z,0
2018-01-26T07:33:07.544Z,0
2018-01-26T07:34:12.479Z,0
2018-01-26T07:35:17.945Z,0
2018-01-26T07:36:23.126Z,0
2018-01-26T07:37:28.451Z,0
2018-01-26T07:38:33.925Z,0
2018-01-26T07:39:39.649Z,0
2018-01-26T07:40:44.833Z,0
2018-01-26T07:41:50.310Z,0
2018-01-26T07:42:56.078Z,0
2018-01-26T07:44:01.273Z,0
2018-01-26T07:45:06.739Z,0
2018-01-26T07:46:12.178Z,0
2018-01-26T07:47:17.675Z,0
2018-01-26T07:48:23.172Z,0
2018-01-26T07:49:28.071Z,0
2018-01-26T07:50:33.540Z,0
2018-01-26T07:51:39.424Z,0
2018-01-26T07:52:44.608Z,0
2018-01-26T07:53:49.545Z,0
2018-01-26T07:54:55.117Z,0
2018-01-26T07:56:00.316Z,0
2018-01-26T07:57:05.496Z,0
2018-01-26T07:58:10.745Z,0
2018-01-26T07:59:16.212Z,0
2018-01-26T08:00:20.830Z,0
2018-01-26T08:01:26.759Z,0
2018-01-26T08:02:32.234Z,0
2018-01-26T08:03:37.659Z,0
2018-01-26T08:04:42.842Z,0
2018-01-26T08:05:48.314Z,6
2018-01-26T08:06:54.021Z,6
2018-01-26T08:07:59.088Z,6
2018-01-26T08:09:04.564Z,6
2018-01-26T08:10:09.423Z,6
2018-01-26T08:11:14.667Z,6
2018-01-26T08:12:19.833Z,6
2018-01-26T08:13:25.013Z,0
2018-01-26T08:14:30.207Z,0
2018-01-26T08:15:35.573Z,0
2018-01-26T08:16:41.030Z,0
2018-01-26T08:17:46.506Z,0
2018-01-26T08:18:51.684Z,0
2018-01-26T08:19:57.201Z,6
2018-01-26T08:21:02.459Z,6
2018-01-26T08:22:08.043Z,6
2018-01-26T08:23:13.215Z,6
2018-01-26T08:24:18.710Z,6
2018-01-26T08:25:24.434Z,6
2018-01-26T08:26:29.641Z,6
2018-01-26T08:27:35.367Z,6
2018-01-26T08:28:40.834Z,6
2018-01-26T08:29:45.745Z,6
2018-01-26T08:30:51.303Z,6
2018-01-26T08:31:56.795Z,6
2018-01-26T08:33:01.980Z,6
2018-01-26T08:34:07.119Z,6
2018-01-26T08:35:11.460Z,6
2018-01-26T08:36:16.385Z,6
2018-01-26T08:37:22.106Z,6
2018-01-26T08:38:27.315Z,6
2018-01-26T08:39:33.014Z,24
2018-01-26T08:40:37.975Z,24
2018-01-26T08:41:43.063Z,24
2018-01-26T08:42:48.993Z,24
2018-01-26T08:43:54.476Z,24
2018-01-26T08:44:59.390Z,40
2018-01-26T08:46:04.879Z,40
2018-01-26T08:47:10.352Z,40
2018-01-26T08:48:15.537Z,40
2018-01-26T08:49:21.005Z,24
2018-01-26T08:50:26.515Z,24
2018-01-26T08:51:32.249Z,24
2018-01-26T08:52:37.921Z,24
2018-01-26T08:53:43.391Z,24
2018-01-26T08:54:49.122Z,24
2018-01-26T08:55:54.306Z,24
2018-01-26T08:56:59.493Z,24
2018-01-26T08:58:05.270Z,24
2018-01-26T08:59:09.868Z,24
2018-01-26T09:00:15.063Z,24
2018-01-26T09:01:20.522Z,24
2018-01-26T09:02:25.724Z,24
2018-01-26T09:03:31.630Z,24
2018-01-26T09:04:37.299Z,24
2018-01-26T09:05:42.512Z,24
2018-01-26T09:23:35.465Z,24
2018-01-26T09:24:41.289Z,24
2018-01-26T09:25:46.462Z,24
2018-01-26T09:26:52.115Z,6
2018-01-26T09:27:57.879Z,6
2018-01-26T09:29:03.381Z,6
2018-01-26T09:30:08.562Z,6
2018-01-26T09:31:13.899Z,6
2018-01-26T09:32:19.042Z,6
2018-01-26T09:33:23.981Z,6
2018-01-26T09:34:44.124Z,24
2018-01-26T09:35:49.313Z,24
2018-01-26T09:36:54.427Z,24
2018-01-26T09:37:59.354Z,24
2018-01-26T09:39:04.549Z,24
2018-01-26T09:40:10.431Z,24
2018-01-26T09:41:15.917Z,24
2018-01-26T09:42:21.554Z,24
2018-01-26T09:43:42.054Z,24
2018-01-26T09:44:47.240Z,24
2018-01-26T09:45:53.074Z,40
2018-01-26T09:46:58.249Z,40
2018-01-26T09:48:03.712Z,40
2018-01-26T09:49:09.319Z,55
2018-01-26T09:50:14.778Z,31
2018-01-26T09:51:20.238Z,31
2018-01-26T09:52:26.044Z,31
2018-01-26T09:53:30.982Z,48
2018-01-26T09:54:36.704Z,48
2018-01-26T09:55:41.910Z,48
2018-01-26T09:56:46.841Z,48
2018-01-26T09:57:52.779Z,48
2018-01-26T09:58:57.992Z,48
2018-01-26T10:00:02.897Z,48
2018-01-26T10:01:08.048Z,48
2018-01-26T10:02:13.525Z,48
2018-01-26T10:03:18.729Z,48
2018-01-26T10:04:23.876Z,48
2018-01-26T10:05:28.772Z,48
2018-01-26T10:06:34.239Z,48
2018-01-26T10:07:39.431Z,48
2018-01-26T10:08:44.898Z,48
2018-01-26T10:09:50.331Z,48
2018-01-26T10:10:55.796Z,48
2018-01-26T10:12:01.279Z,48
2018-01-26T10:13:06.703Z,48
2018-01-26T10:14:11.885Z,48
2018-01-26T10:15:17.511Z,48
2018-01-26T10:16:22.759Z,31
2018-01-26T10:17:27.389Z,31
2018-01-26T10:18:33.234Z,55
2018-01-26T10:19:38.433Z,40
2018-01-26T10:20:43.928Z,40
2018-01-26T10:21:49.358Z,40
2018-01-26T10:22:54.550Z,55
2018-01-26T10:24:00.015Z,31
2018-01-26T10:25:05.262Z,31
2018-01-26T10:26:10.465Z,31
2018-01-26T10:27:15.655Z,31
2018-01-26T10:28:21.378Z,31
2018-01-26T10:29:26.895Z,31
2018-01-26T10:30:32.428Z,48
2018-01-26T10:31:37.637Z,48
2018-01-26T10:32:43.106Z,31
2018-01-26T10:33:48.555Z,31
2018-01-26T10:34:53.466Z,48
2018-01-26T10:35:58.665Z,48
2018-01-26T10:37:04.431Z,48
2018-01-26T10:38:09.730Z,48
2018-01-26T10:39:14.035Z,48
2018-01-26T10:40:20.105Z,48
2018-01-26T10:41:25.313Z,48
2018-01-26T10:42:30.550Z,48
2018-01-26T10:43:36.019Z,48
2018-01-26T10:44:41.227Z,48
2018-01-26T10:45:46.895Z,48
2018-01-26T10:46:52.099Z,48
2018-01-26T10:47:57.289Z,48
2018-01-26T10:49:02.552Z,48
2018-01-26T10:50:07.452Z,48
2018-01-26T10:51:12.634Z,31
2018-01-26T10:52:17.220Z,31
2018-01-26T10:53:22.131Z,31
2018-01-26T10:54:27.918Z,31
2018-01-26T10:55:32.819Z,31
2018-01-26T10:56:37.717Z,31
2018-01-26T10:57:42.979Z,31
2018-01-26T10:58:48.442Z,31
2018-01-26T10:59:53.899Z,31
2018-01-26T11:00:59.404Z,31
2018-01-26T11:02:03.780Z,31
2018-01-26T11:03:08.993Z,31
2018-01-26T11:04:14.164Z,31
2018-01-26T11:05:19.646Z,31
2018-01-26T11:07:44.758Z,48
2018-01-26T11:08:49.681Z,48
2018-01-26T11:09:55.463Z,48
2018-01-26T11:11:00.947Z,48
2018-01-26T11:12:06.141Z,48
2018-01-26T11:13:11.065Z,48
2018-01-26T11:14:16.253Z,48
2018-01-26T11:15:21.750Z,64
2018-01-26T11:16:41.840Z,64
2018-01-26T11:17:47.048Z,64
2018-01-26T11:18:52.194Z,64
2018-01-26T11:19:56.831Z,64
2018-01-26T11:21:02.099Z,64
2018-01-26T11:22:06.787Z,64
2018-01-26T11:23:12.260Z,64
2018-01-26T11:24:17.933Z,64
2018-01-26T11:25:23.434Z,64
2018-01-26T11:26:28.632Z,64
2018-01-26T11:27:34.366Z,64
2018-01-26T11:28:39.577Z,64
2018-01-26T11:29:44.792Z,37
2018-01-26T11:30:50.211Z,37
2018-01-26T11:31:55.679Z,37
2018-01-26T11:33:00.300Z,55
2018-01-26T11:34:05.768Z,55
2018-01-26T11:35:10.970Z,72
2018-01-26T11:36:15.883Z,72
2018-01-26T11:37:21.044Z,88
2018-01-26T11:38:26.511Z,88
2018-01-26T11:39:32.449Z,88
2018-01-26T11:40:37.943Z,62
2018-01-26T11:41:42.568Z,62
2018-01-26T11:42:48.116Z,62
2018-01-26T11:43:53.610Z,62
2018-01-26T11:44:59.070Z,79
2018-01-26T11:46:03.936Z,79
2018-01-26T11:47:09.417Z,79
2018-01-26T11:48:14.896Z,79
2018-01-26T11:49:20.625Z,79
2018-01-26T11:50:26.095Z,79
2018-01-26T11:51:31.548Z,79
2018-01-26T11:52:36.466Z,79
2018-01-26T11:53:41.932Z,79
2018-01-26T11:54:47.363Z,79
2018-01-26T11:55:52.614Z,79
2018-01-26T11:56:58.109Z,95
2018-01-26T11:58:03.100Z,79
2018-01-26T11:59:08.288Z,79
2018-01-26T12:00:13.771Z,62
2018-01-26T12:01:19.659Z,88
2018-01-26T12:02:25.154Z,88
2018-01-26T12:03:30.739Z,88
2018-01-26T12:04:35.925Z,88
2018-01-26T12:05:41.130Z,62
2018-01-26T12:06:46.976Z,88
2018-01-26T12:07:52.453Z,72
2018-01-26T12:08:57.626Z,72
2018-01-26T12:10:03.189Z,72
2018-01-26T12:11:08.016Z,72
2018-01-26T12:12:13.526Z,55
2018-01-26T12:13:19.301Z,55
2018-01-26T12:14:24.837Z,37
2018-01-26T12:15:30.256Z,64
2018-01-26T12:16:35.736Z,64
2018-01-26T12:17:41.222Z,64
2018-01-26T12:18:46.762Z,48
2018-01-26T12:19:52.228Z,48
2018-01-26T12:20:57.163Z,48
2018-01-26T12:22:02.649Z,48
2018-01-26T12:23:07.843Z,48
2018-01-26T12:24:13.305Z,48
2018-01-26T12:25:19.038Z,48
2018-01-26T12:26:24.503Z,48
2018-01-26T12:27:29.964Z,48
2018-01-26T12:28:35.496Z,48
2018-01-26T12:29:40.755Z,48
2018-01-26T12:30:46.211Z,48
2018-01-26T12:31:51.692Z,64
2018-01-26T12:32:57.213Z,64
2018-01-26T12:34:02.125Z,64
2018-01-26T12:35:06.941Z,64
2018-01-26T12:36:11.840Z,37
2018-01-26T12:37:16.825Z,37
2018-01-26T12:38:21.726Z,55
2018-01-26T12:39:27.542Z,37
2018-01-26T12:40:33.334Z,37
2018-01-26T12:41:38.279Z,37
2018-01-26T12:42:44.057Z,37
2018-01-26T12:43:49.540Z,37
2018-01-26T12:44:54.454Z,37
2018-01-26T12:45:59.980Z,37
2018-01-26T12:47:05.447Z,37
2018-01-26T12:48:10.359Z,37
2018-01-26T12:49:16.076Z,55
2018-01-26T12:50:21.534Z,37
2018-01-26T12:51:27.250Z,37
2018-01-26T12:52:32.704Z,37
2018-01-26T12:53:37.585Z,64
2018-01-26T12:54:43.430Z,64
2018-01-26T12:55:48.910Z,64
2018-01-26T12:56:54.085Z,64
2018-01-26T12:57:59.510Z,64
2018-01-26T12:59:04.985Z,64
2018-01-26T13:00:09.909Z,64
2018-01-26T13:01:15.082Z,64
2018-01-26T13:02:20.595Z,64
2018-01-26T13:03:26.666Z,64
2018-01-26T13:04:31.849Z,64
2018-01-26T13:05:37.044Z,64
2018-01-26T13:06:42.351Z,64
2018-01-26T13:07:47.539Z,64
2018-01-26T13:08:52.724Z,64
2018-01-26T13:09:58.270Z,64
2018-01-26T13:11:03.465Z,64
2018-01-26T13:12:08.645Z,64
2018-01-26T13:13:13.825Z,48
2018-01-26T13:14:19.039Z,48
2018-01-26T13:15:23.721Z,48
2018-01-26T13:16:44.091Z,48
2018-01-26T13:17:49.266Z,48
2018-01-26T13:18:55.029Z,48
2018-01-26T13:20:00.464Z,48
2018-01-26T13:21:05.731Z,64
2018-01-26T13:22:11.156Z,64
2018-01-26T13:23:16.356Z,37
2018-01-26T13:24:21.823Z,55
2018-01-26T13:25:27.160Z,37
2018-01-26T13:26:32.363Z,37
2018-01-26T13:27:37.640Z,37
2018-01-26T13:28:42.807Z,37
2018-01-26T13:29:48.267Z,37
2018-01-26T13:30:53.989Z,37
2018-01-26T13:31:59.464Z,37
2018-01-26T13:33:04.666Z,37
2018-01-26T13:34:10.277Z,55
2018-01-26T13:35:15.489Z,55
2018-01-26T13:36:20.653Z,55
2018-01-26T13:37:26.558Z,55
2018-01-26T13:38:31.498Z,55
2018-01-26T13:39:36.952Z,55
2018-01-26T13:40:42.247Z,55
2018-01-26T13:41:47.430Z,55
2018-01-26T13:42:52.892Z,55
2018-01-26T13:43:58.371Z,55
2018-01-26T13:45:02.988Z,55
2018-01-26T13:46:07.895Z,55
2018-01-26T13:47:12.844Z,55
2018-01-26T13:48:18.314Z,55
2018-01-26T13:49:24.097Z,37
2018-01-26T13:50:29.300Z,37
2018-01-26T13:51:34.853Z,64
2018-01-26T13:52:40.332Z,64
2018-01-26T13:53:45.260Z,64
2018-01-26T13:54:51.132Z,64
2018-01-26T13:55:56.346Z,64
2018-01-26T13:57:01.830Z,64
2018-01-26T13:58:06.748Z,64
2018-01-26T13:59:11.943Z,37
2018-01-26T14:00:16.842Z,37
2018-01-26T14:01:22.495Z,37
2018-01-26T14:02:27.968Z,37
2018-01-26T14:03:32.939Z,48
2018-01-26T14:04:38.595Z,64
2018-01-26T14:05:44.061Z,37
2018-01-26T14:06:49.213Z,37
2018-01-26T14:07:54.775Z,37
2018-01-26T14:08:59.731Z,64
2018-01-26T14:10:04.695Z,64
2018-01-26T14:11:09.611Z,64
2018-01-26T14:12:14.808Z,64
2018-01-26T14:13:20.154Z,48
2018-01-26T14:14:25.691Z,48
2018-01-26T14:15:31.718Z,48
2018-01-26T14:16:36.953Z,48
2018-01-26T14:17:42.628Z,48
2018-01-26T14:18:48.088Z,48
2018-01-26T14:19:53.317Z,48
2018-01-26T14:20:58.779Z,48
2018-01-26T14:22:04.594Z,48
2018-01-26T14:23:08.928Z,48
2018-01-26T14:24:13.838Z,48
2018-01-26T14:25:19.181Z,48
2018-01-26T14:26:24.738Z,48
2018-01-26T14:27:29.944Z,48
2018-01-26T14:28:35.147Z,31
2018-01-26T14:29:40.339Z,48
2018-01-26T14:30:44.913Z,31
2018-01-26T14:31:50.399Z,31
2018-01-26T14:32:55.771Z,308
2018-01-26T14:34:01.338Z,292
2018-01-26T14:35:05.946Z,308
2018-01-26T14:36:11.117Z,308
2018-01-26T14:37:16.583Z,31
2018-01-26T14:38:21.916Z,31
2018-01-26T14:39:27.563Z,31
2018-01-26T14:40:32.831Z,31
2018-01-26T14:41:38.485Z,31
2018-01-26T14:42:44.210Z,31
2018-01-26T14:43:48.841Z,31
2018-01-26T14:44:54.309Z,31
2018-01-26T14:46:00.025Z,13
2018-01-26T14:47:04.921Z,40
2018-01-26T14:48:10.132Z,40
2018-01-26T14:49:16.047Z,40
2018-01-26T14:50:21.548Z,40
2018-01-26T14:51:27.574Z,40
2018-01-26T14:52:32.755Z,40
2018-01-26T14:53:37.650Z,40
2018-01-26T14:54:43.410Z,40
2018-01-26T14:55:48.627Z,40
2018-01-26T14:56:54.091Z,40
2018-01-26T14:57:59.872Z,40
2018-01-26T14:59:05.344Z,40
2018-01-26T15:00:10.811Z,40
2018-01-26T15:01:16.727Z,40
2018-01-26T15:02:22.813Z,40
2018-01-26T15:03:28.734Z,40
2018-01-26T15:04:34.431Z,40
2018-01-26T15:05:39.899Z,40
2018-01-26T15:06:45.656Z,40
2018-01-26T15:07:50.865Z,24
2018-01-26T15:08:56.317Z,24
2018-01-26T15:10:01.816Z,24
2018-01-26T15:11:07.307Z,24
2018-01-26T15:12:12.195Z,24
2018-01-26T15:13:17.914Z,24
2018-01-26T15:14:23.124Z,24
2018-01-26T15:15:28.376Z,24
2018-01-26T15:16:33.845Z,24
2018-01-26T15:17:39.357Z,24
2018-01-26T15:18:44.526Z,24
2018-01-26T15:19:49.433Z,24
2018-01-26T15:20:54.895Z,24
2018-01-26T15:22:00.629Z,24
2018-01-26T15:23:06.112Z,24
2018-01-26T15:24:11.573Z,24
2018-01-26T15:25:16.997Z,24
2018-01-26T15:26:22.185Z,24
2018-01-26T15:27:27.522Z,6
2018-01-26T15:28:33.002Z,6
2018-01-26T15:29:38.476Z,6
2018-01-26T15:30:43.924Z,6
2018-01-26T15:31:49.412Z,6
2018-01-26T15:32:54.589Z,6
2018-01-26T15:34:00.309Z,6
2018-01-26T15:35:05.218Z,6
2018-01-26T15:36:09.843Z,6
2018-01-26T15:37:15.003Z,6
2018-01-26T15:38:20.480Z,6
2018-01-26T15:39:40.845Z,0
2018-01-26T15:40:46.034Z,0
2018-01-26T15:41:50.666Z,0
2018-01-26T15:42:56.536Z,0
2018-01-26T15:44:02.050Z,0
2018-01-26T15:45:07.244Z,0
2018-01-26T15:46:13.152Z,0
2018-01-26T15:47:18.319Z,0
2018-01-26T15:48:23.946Z,0
2018-01-26T15:49:29.477Z,0
2018-01-26T15:50:34.952Z,0
2018-01-26T15:51:40.652Z,0
2018-01-26T15:52:46.149Z,0
2018-01-26T15:53:51.309Z,0
2018-01-26T15:54:56.753Z,0
2018-01-26T15:56:02.222Z,0
2018-01-26T15:57:07.415Z,0
2018-01-26T15:58:13.234Z,0
2018-01-26T15:59:18.749Z,0
2018-01-26T16:00:23.965Z,0
2018-01-26T16:01:43.762Z,0
2018-01-26T16:02:49.249Z,0
2018-01-26T16:03:54.521Z,0
2018-01-26T16:04:59.686Z,0
2018-01-26T16:06:04.872Z,0
2018-01-26T16:07:10.516Z,0
2018-01-26T16:08:15.997Z,0
2018-01-26T16:09:21.178Z,0
2018-01-26T16:10:27.107Z,0
2018-01-26T16:11:32.001Z,0
2018-01-26T16:12:37.705Z,0
2018-01-26T16:13:42.889Z,0
2018-01-26T16:14:48.081Z,0